Time;durP1;ratioP1;P1;durP2;ratioP2;P2;SDS_P1;SDS_P2;PMS_P1;PMS_P2;Temp;Humidity;BMP_temperature;BMP_pressure;BME280_temperature;BME280_humidity;BME280_pressure;Samples;Min_cycle;Max_cycle;Signal;HPM_P1;HPM_P2
2022/08/03 00:00:13;;;;;;;8.63;4.00;;;19.80;99.90;;;;;;5036997;28;20181;-78
2022/08/03 00:02:39;;;;;;;8.88;4.18;;;19.80;99.90;;;;;;5037469;28;20182;-77
2022/08/03 00:05:07;;;;;;;6.03;4.45;;;19.80;99.90;;;;;;5037087;28;20202;-77
2022/08/03 00:07:33;;;;;;;5.68;4.30;;;19.70;99.90;;;;;;5036896;28;20295;-78
2022/08/03 00:09:58;;;;;;;9.50;4.50;;;19.80;99.90;;;;;;5037938;28;20642;-79
2022/08/03 00:12:24;;;;;;;7.17;4.40;;;19.60;99.90;;;;;;5038282;28;20177;-77
2022/08/03 00:14:50;;;;;;;7.47;4.37;;;19.70;99.90;;;;;;5037044;28;20205;-79
2022/08/03 00:17:15;;;;;;;7.17;4.33;;;19.70;99.90;;;;;;5036762;28;20204;-79
2022/08/03 00:19:41;;;;;;;7.32;4.10;;;19.60;99.90;;;;;;5035521;28;20178;-80
2022/08/03 00:22:06;;;;;;;9.10;4.38;;;19.50;99.90;;;;;;5036896;28;20535;-79
2022/08/03 00:24:34;;;;;;;9.23;5.07;;;19.40;99.90;;;;;;5037606;28;20217;-80
2022/08/03 00:27:00;;;;;;;7.77;4.60;;;19.40;99.90;;;;;;5037133;28;20178;-78
2022/08/03 00:29:26;;;;;;;6.70;4.60;;;19.40;99.90;;;;;;5036823;28;20205;-79
2022/08/03 00:31:52;;;;;;;9.87;4.40;;;19.40;99.90;;;;;;5037134;28;20206;-80
2022/08/03 00:34:17;;;;;;;5.93;4.87;;;19.50;99.90;;;;;;5036847;28;20240;-79
2022/08/03 00:36:43;;;;;;;10.00;4.82;;;19.30;99.90;;;;;;5036108;28;20170;-78
2022/08/03 00:39:09;;;;;;;8.02;5.03;;;19.30;99.90;;;;;;5038848;28;20245;-79
2022/08/03 00:41:34;;;;;;;10.70;4.73;;;19.20;99.90;;;;;;5038659;28;20170;-79
2022/08/03 00:44:00;;;;;;;6.97;4.80;;;19.30;99.90;;;;;;5040043;28;20175;-79
2022/08/03 00:46:26;;;;;;;7.03;4.93;;;19.30;99.90;;;;;;5040311;28;20178;-79
2022/08/03 00:48:52;;;;;;;14.30;5.00;;;19.30;99.90;;;;;;5037711;28;20174;-80
2022/08/03 00:51:20;;;;;;;7.90;5.10;;;19.40;99.90;;;;;;5038237;28;20209;-79
2022/08/03 00:53:46;;;;;;;9.67;5.20;;;19.20;99.90;;;;;;5039117;28;20186;-80
2022/08/03 00:56:16;;;;;;;11.60;5.30;;;19.20;99.90;;;;;;5038448;28;20234;-80
2022/08/03 00:58:45;;;;;;;6.32;5.38;;;19.30;99.90;;;;;;5041178;28;20177;-80
2022/08/03 01:01:11;;;;;;;7.43;5.30;;;19.40;99.90;;;;;;5045905;28;20174;-79
2022/08/03 01:03:37;;;;;;;15.73;5.60;;;19.40;99.90;;;;;;5049534;28;20731;-79
2022/08/03 01:06:18;;;;;;;9.07;5.67;;;19.40;99.90;;;;;;5037964;28;20734;-77
2022/08/03 01:08:58;;;;;;;9.33;5.73;;;19.30;99.90;;;;;;5038367;28;20181;-78
2022/08/03 01:11:45;;;;;;;11.27;5.20;;;19.20;99.90;;;;;;5037628;28;20256;-79
2022/08/03 01:14:23;;;;;;;7.87;4.73;;;19.20;99.90;;;;;;5038624;28;20193;-78
2022/08/03 01:17:22;;;;;;;8.73;5.27;;;19.30;99.90;;;;;;5038011;28;20546;-78
2022/08/03 01:20:05;;;;;;;10.70;5.10;;;19.30;99.90;;;;;;5038183;28;20773;-78
2022/08/03 01:22:58;;;;;;;9.80;5.10;;;19.20;99.90;;;;;;5035760;28;20177;-78
2022/08/03 01:25:35;;;;;;;7.80;5.53;;;19.20;99.90;;;;;;5036434;28;20220;-77
2022/08/03 01:28:39;;;;;;;11.03;5.60;;;19.10;99.90;;;;;;5035888;28;20201;-77
2022/08/03 01:31:09;;;;;;;12.23;6.40;;;19.20;99.90;;;;;;5035564;28;20256;-77
2022/08/03 01:33:39;;;;;;;11.23;6.17;;;19.10;99.90;;;;;;5034766;28;20181;-77
2022/08/03 01:36:27;;;;;;;12.23;5.57;;;18.90;99.90;;;;;;5035984;28;20197;-79
2022/08/03 01:38:57;;;;;;;7.47;5.90;;;19.00;99.90;;;;;;5018123;28;20609;-77
2022/08/03 01:41:34;;;;;;;12.63;7.07;;;18.90;99.90;;;;;;5035348;28;20177;-77
2022/08/03 01:44:02;;;;;;;11.53;7.00;;;18.80;99.90;;;;;;5036174;28;20231;-76
2022/08/03 01:46:30;;;;;;;13.30;6.60;;;18.90;99.90;;;;;;5034570;28;20174;-77
2022/08/03 01:48:57;;;;;;;13.03;7.33;;;18.90;99.90;;;;;;5035148;28;20237;-78
2022/08/03 01:51:23;;;;;;;16.33;7.70;;;18.70;99.90;;;;;;5033780;28;20898;-78
2022/08/03 01:53:53;;;;;;;14.97;7.43;;;18.90;99.90;;;;;;5035876;28;20205;-77
2022/08/03 01:56:23;;;;;;;11.33;7.63;;;18.70;99.90;;;;;;5033947;28;20193;-77
2022/08/03 01:58:51;;;;;;;12.37;7.00;;;18.80;99.90;;;;;;5034801;28;20245;-77
2022/08/03 02:01:19;;;;;;;13.27;7.00;;;18.90;99.90;;;;;;5033322;28;20173;-77
2022/08/03 02:03:47;;;;;;;14.10;6.87;;;18.90;99.90;;;;;;5034136;28;20178;-77
2022/08/03 02:06:13;;;;;;;16.57;6.87;;;18.90;99.90;;;;;;5034024;28;20224;-76
2022/08/03 02:08:41;;;;;;;12.50;7.47;;;18.70;99.90;;;;;;5033397;28;20174;-79
2022/08/03 02:11:07;;;;;;;15.37;7.30;;;18.60;99.90;;;;;;5033569;28;20194;-77
2022/08/03 02:13:34;;;;;;;14.53;7.47;;;18.70;99.90;;;;;;5033394;28;20174;-77
2022/08/03 02:16:03;;;;;;;11.07;6.67;;;18.60;99.90;;;;;;5033115;28;20190;-78
2022/08/03 02:18:33;;;;;;;13.23;6.73;;;18.50;99.90;;;;;;5050530;22;20182;-82
2022/08/03 02:21:01;;;;;;;12.17;6.77;;;18.50;99.90;;;;;;5034417;28;20178;-82
2022/08/03 02:23:26;;;;;;;17.10;8.43;;;18.50;99.90;;;;;;5032924;28;20681;-82
2022/08/03 02:25:56;;;;;;;17.57;8.63;;;18.40;99.90;;;;;;5034370;28;20173;-81
2022/08/03 02:28:29;;;;;;;12.47;7.77;;;18.50;99.90;;;;;;5033642;28;20528;-81
2022/08/03 02:30:56;;;;;;;16.87;8.17;;;18.50;99.90;;;;;;5033831;28;20229;-82
2022/08/03 02:35:49;;;;;;;13.97;7.83;;;18.60;99.90;;;;;;5038130;22;20225;-84
2022/08/03 02:38:19;;;;;;;13.47;8.07;;;18.30;99.90;;;;;;5032772;28;20170;-84
2022/08/03 02:40:45;;;;;;;18.13;8.90;;;18.30;99.90;;;;;;5032557;28;20210;-84
2022/08/03 02:43:16;;;;;;;18.23;9.03;;;18.30;99.90;;;;;;5032618;28;20185;-84
2022/08/03 02:45:45;;;;;;;18.90;8.70;;;18.40;99.90;;;;;;5031745;28;20673;-84
2022/08/03 02:48:14;;;;;;;19.37;9.13;;;18.40;99.90;;;;;;5032163;28;20179;-84
2022/08/03 02:50:42;;;;;;;15.80;9.30;;;18.40;99.90;;;;;;5031987;28;20236;-84
2022/08/03 02:53:10;;;;;;;21.50;9.07;;;18.30;99.90;;;;;;5031594;28;20192;-84
2022/08/03 02:55:37;;;;;;;18.03;8.80;;;18.30;99.90;;;;;;5031629;28;20206;-84
2022/08/03 02:58:04;;;;;;;15.73;9.33;;;18.30;99.90;;;;;;5032016;28;20642;-84
2022/08/03 03:00:31;;;;;;;18.37;9.27;;;18.30;99.90;;;;;;5031598;28;20277;-84
2022/08/03 03:02:59;;;;;;;17.23;9.30;;;18.20;99.90;;;;;;5031501;28;20649;-84
2022/08/03 03:05:25;;;;;;;23.80;9.23;;;18.40;99.90;;;;;;5031515;28;20194;-84
2022/08/03 03:07:51;;;;;;;17.90;8.33;;;18.30;99.90;;;;;;5031444;28;20177;-84
2022/08/03 03:10:20;;;;;;;14.13;8.43;;;18.10;99.90;;;;;;5031384;28;20201;-84
2022/08/03 03:12:47;;;;;;;15.03;8.80;;;18.10;99.90;;;;;;5031345;28;20162;-84
2022/08/03 03:15:12;;;;;;;20.90;9.97;;;18.10;99.90;;;;;;5031798;28;20666;-84
2022/08/03 03:17:39;;;;;;;14.00;8.77;;;18.00;99.90;;;;;;5032172;28;20169;-84
2022/08/03 03:20:07;;;;;;;17.70;9.07;;;17.90;99.90;;;;;;5032330;28;20236;-84
2022/08/03 03:22:33;;;;;;;17.73;8.90;;;18.10;99.90;;;;;;5031696;28;20288;-84
2022/08/03 03:24:59;;;;;;;20.83;9.37;;;18.30;99.90;;;;;;5031300;28;20282;-85
2022/08/03 03:27:25;;;;;;;11.90;7.77;;;18.30;99.90;;;;;;5032044;28;20166;-85
2022/08/03 03:29:51;;;;;;;19.03;8.90;;;18.30;99.90;;;;;;5031516;28;20166;-84
2022/08/03 03:32:17;;;;;;;15.17;8.03;;;18.10;99.90;;;;;;5031728;28;20185;-84
2022/08/03 03:34:43;;;;;;;15.17;8.67;;;18.20;99.90;;;;;;5031315;28;20236;-84
2022/08/03 03:37:09;;;;;;;16.23;8.13;;;18.10;99.90;;;;;;5031850;28;20173;-85
2022/08/03 03:39:35;;;;;;;15.50;7.83;;;18.10;99.90;;;;;;5032855;28;20177;-85
2022/08/03 03:42:01;;;;;;;14.73;7.90;;;18.10;99.90;;;;;;5031502;28;20185;-84
2022/08/03 03:44:28;;;;;;;18.80;8.13;;;18.20;99.90;;;;;;5031279;28;20201;-84
2022/08/03 03:46:56;;;;;;;12.93;7.10;;;18.10;99.90;;;;;;5031893;28;20227;-84
2022/08/03 03:49:22;;;;;;;16.10;8.07;;;18.10;99.90;;;;;;5032641;28;20522;-85
2022/08/03 03:51:47;;;;;;;13.87;7.60;;;18.30;99.90;;;;;;5031290;28;20209;-84
2022/08/03 03:54:13;;;;;;;15.10;7.57;;;18.30;99.90;;;;;;5031210;28;20683;-84
2022/08/03 03:56:39;;;;;;;13.77;7.33;;;18.20;99.90;;;;;;5031431;28;20166;-84
2022/08/03 03:59:05;;;;;;;20.90;7.90;;;18.20;99.90;;;;;;5031432;28;20553;-84
2022/08/03 04:01:31;;;;;;;16.27;7.23;;;18.30;99.90;;;;;;5031296;28;20177;-84
2022/08/03 04:03:56;;;;;;;14.00;8.13;;;18.30;99.90;;;;;;5031438;28;20181;-84
2022/08/03 04:11:56;;;;;;;14.33;7.97;;;18.00;99.90;;;;;;5032723;28;20212;-84
2022/08/03 04:14:23;;;;;;;15.43;7.40;;;18.00;99.90;;;;;;5031337;28;20217;-84
2022/08/03 04:16:53;;;;;;;14.43;7.30;;;18.00;99.90;;;;;;5031234;28;20174;-84
2022/08/03 04:19:31;;;;;;;16.20;7.43;;;18.00;99.90;;;;;;5031287;28;20169;-84
2022/08/03 04:21:59;;;;;;;16.10;7.37;;;18.00;99.90;;;;;;5031067;28;20324;-84
2022/08/03 04:24:38;;;;;;;16.87;7.17;;;18.00;99.90;;;;;;5031263;28;20190;-84
2022/08/03 04:27:07;;;;;;;13.30;7.13;;;18.10;99.90;;;;;;5031936;28;20541;-84
2022/08/03 04:29:36;;;;;;;15.87;7.73;;;18.20;99.90;;;;;;5031433;28;20170;-84
2022/08/03 04:32:04;;;;;;;14.03;8.17;;;18.30;99.90;;;;;;5031573;28;20565;-84
2022/08/03 04:34:30;;;;;;;13.03;7.13;;;18.30;99.90;;;;;;5030732;28;20205;-84
2022/08/03 04:36:59;;;;;;;19.43;7.90;;;18.30;99.90;;;;;;5033314;28;20166;-84
2022/08/03 04:39:28;;;;;;;11.20;6.77;;;18.20;99.90;;;;;;5035009;28;20549;-84
2022/08/03 04:41:58;;;;;;;17.70;7.40;;;18.30;99.90;;;;;;5034825;28;20182;-84
2022/08/03 04:44:25;;;;;;;10.00;6.53;;;18.40;99.90;;;;;;5034540;28;20198;-84
2022/08/03 04:46:52;;;;;;;12.00;6.70;;;18.50;99.90;;;;;;5034633;28;20652;-84
2022/08/03 04:49:20;;;;;;;12.50;6.67;;;18.60;99.90;;;;;;5034858;28;20178;-84
2022/08/03 04:51:48;;;;;;;12.93;6.83;;;18.60;99.90;;;;;;5034600;28;20689;-84
2022/08/03 04:54:15;;;;;;;13.03;7.07;;;18.60;99.90;;;;;;5034333;28;20194;-84
2022/08/03 04:56:41;;;;;;;15.27;6.53;;;18.70;99.90;;;;;;5034640;28;20170;-84
2022/08/03 04:59:07;;;;;;;11.97;7.27;;;18.70;99.90;;;;;;5035296;28;20204;-84
2022/08/03 05:01:33;;;;;;;13.63;6.00;;;18.90;99.90;;;;;;5034113;28;20189;-85
2022/08/03 05:03:59;;;;;;;22.83;6.53;;;19.20;99.90;;;;;;5034284;28;20241;-84
2022/08/03 05:06:25;;;;;;;16.37;6.73;;;19.30;99.90;;;;;;5034377;28;20269;-84
2022/08/03 05:08:50;;;;;;;10.47;6.57;;;19.60;99.90;;;;;;5034221;28;20174;-84
2022/08/03 05:11:16;;;;;;;12.17;5.87;;;19.70;99.90;;;;;;5033721;28;20775;-84
2022/08/03 05:13:43;;;;;;;11.00;6.50;;;19.80;99.90;;;;;;5034721;28;20205;-84
2022/08/03 05:16:09;;;;;;;11.03;6.50;;;19.60;99.90;;;;;;5034631;28;20174;-84
2022/08/03 05:18:35;;;;;;;17.30;7.00;;;19.70;99.90;;;;;;5034215;28;20689;-84
2022/08/03 05:21:00;;;;;;;15.63;6.50;;;19.80;99.90;;;;;;5034369;28;20232;-84
2022/08/03 05:23:26;;;;;;;12.80;6.63;;;19.90;99.90;;;;;;5034105;28;20177;-85
2022/08/03 05:25:52;;;;;;;13.50;6.53;;;19.90;99.90;;;;;;5034870;28;20193;-84
2022/08/03 05:28:18;;;;;;;13.32;6.15;;;20.10;99.90;;;;;;5035251;28;20547;-84
2022/08/03 05:30:43;;;;;;;15.13;6.43;;;20.30;99.90;;;;;;5033912;28;20386;-84
2022/08/03 05:33:09;;;;;;;16.35;6.90;;;20.50;99.90;;;;;;5034133;28;20170;-84
2022/08/03 05:35:37;;;;;;;15.65;5.63;;;20.50;99.90;;;;;;5034137;28;20224;-85
2022/08/03 05:38:03;;;;;;;10.70;5.85;;;20.60;99.90;;;;;;5034185;28;20604;-84
2022/08/03 05:40:29;;;;;;;13.98;6.18;;;20.70;99.90;;;;;;5034524;28;20213;-84
2022/08/03 05:42:55;;;;;;;11.00;5.85;;;20.80;99.90;;;;;;5033526;28;20173;-85
2022/08/03 05:45:21;;;;;;;13.30;5.88;;;20.90;99.90;;;;;;5033507;28;20189;-84
2022/08/03 05:47:46;;;;;;;11.07;5.97;;;21.10;99.90;;;;;;5033492;28;20216;-84
2022/08/03 05:50:13;;;;;;;9.10;5.32;;;21.20;99.90;;;;;;5035433;28;20683;-84
2022/08/03 05:52:39;;;;;;;13.27;5.95;;;21.30;99.90;;;;;;5033365;28;20612;-85
2022/08/03 05:55:06;;;;;;;12.55;5.75;;;21.40;99.90;;;;;;5033909;28;20198;-84
2022/08/03 05:57:32;;;;;;;8.77;5.25;;;21.50;99.90;;;;;;5035495;28;20170;-85
2022/08/03 05:59:58;;;;;;;10.73;5.80;;;21.70;99.90;;;;;;5035994;28;20667;-84
2022/08/03 06:02:23;;;;;;;9.77;5.18;;;21.70;99.90;;;;;;5033620;28;20174;-84
2022/08/03 06:04:49;;;;;;;8.35;4.72;;;21.90;99.90;;;;;;5034801;28;20788;-84
2022/08/03 06:07:15;;;;;;;6.93;4.80;;;22.20;99.90;;;;;;5033719;28;20169;-84
2022/08/03 06:09:40;;;;;;;11.65;4.15;;;22.40;99.90;;;;;;5033462;28;20745;-84
2022/08/03 06:12:06;;;;;;;7.13;4.35;;;22.90;99.90;;;;;;5032944;28;20321;-84
2022/08/03 06:14:32;;;;;;;15.52;4.55;;;23.20;99.90;;;;;;5032966;28;20563;-83
2022/08/03 06:16:57;;;;;;;7.93;3.83;;;23.60;99.90;;;;;;5035911;28;20178;-83
2022/08/03 06:19:24;;;;;;;8.48;3.70;;;24.10;99.90;;;;;;5036040;28;20167;-83
2022/08/03 06:21:50;;;;;;;8.13;3.75;;;24.30;99.90;;;;;;5034069;28;20178;-83
2022/08/03 06:24:15;;;;;;;7.75;3.85;;;24.50;99.90;;;;;;5034840;28;20190;-82
2022/08/03 06:26:41;;;;;;;11.05;3.60;;;24.60;99.90;;;;;;5033502;28;20174;-82
2022/08/03 06:29:07;;;;;;;6.03;3.30;;;24.70;99.90;;;;;;5033929;28;20204;-83
2022/08/03 06:31:32;;;;;;;8.50;3.28;;;25.20;99.90;;;;;;5032721;28;20727;-82
2022/08/03 06:33:58;;;;;;;7.28;3.50;;;25.50;99.90;;;;;;5035963;28;20189;-82
2022/08/03 06:36:30;;;;;;;6.22;3.35;;;25.40;99.90;;;;;;5034546;28;20672;-82
2022/08/03 06:38:57;;;;;;;6.88;3.10;;;25.50;99.90;;;;;;5036605;28;20178;-81
2022/08/03 06:41:22;;;;;;;7.45;3.50;;;25.90;99.90;;;;;;5036553;28;20213;-81
2022/08/03 06:43:48;;;;;;;8.32;3.70;;;26.00;99.90;;;;;;5035413;28;20224;-81
2022/08/03 06:46:14;;;;;;;7.35;3.30;;;26.30;99.90;;;;;;5034792;28;20206;-80
2022/08/03 06:48:40;;;;;;;11.27;3.03;;;26.40;99.90;;;;;;5035046;28;20182;-81
2022/08/03 06:51:06;;;;;;;8.85;3.50;;;26.30;99.90;;;;;;5037193;28;20348;-81
2022/08/03 06:53:32;;;;;;;5.90;3.50;;;25.90;99.90;;;;;;5036370;28;20174;-79
2022/08/03 06:55:57;;;;;;;5.07;3.00;;;25.90;99.90;;;;;;5039728;28;20201;-79
2022/08/03 06:58:23;;;;;;;8.05;3.25;;;26.30;99.90;;;;;;5040382;28;20174;-80
2022/08/03 07:00:49;;;;;;;6.57;2.92;;;26.80;99.90;;;;;;5041833;28;20178;-79
2022/08/03 07:03:15;;;;;;;9.88;3.33;;;26.90;99.90;;;;;;5037779;28;20216;-82
2022/08/03 07:05:42;;;;;;;10.07;3.65;;;27.40;99.90;;;;;;5033273;28;20186;-81
2022/08/03 07:08:08;;;;;;;4.78;3.10;;;27.60;99.90;;;;;;5034923;28;20190;-80
2022/08/03 07:10:33;;;;;;;5.00;3.22;;;27.60;99.90;;;;;;5033460;28;20216;-81
2022/08/03 07:12:59;;;;;;;12.40;3.25;;;27.70;99.90;;;;;;5033034;28;20193;-81
2022/08/03 07:15:25;;;;;;;6.80;3.50;;;27.60;99.90;;;;;;5032550;28;20190;-82
2022/08/03 07:17:50;;;;;;;5.78;2.80;;;27.90;99.90;;;;;;5033038;28;20243;-81
2022/08/03 07:20:17;;;;;;;9.57;3.10;;;28.20;99.90;;;;;;5032907;28;20185;-80
2022/08/03 07:22:43;;;;;;;6.25;3.50;;;28.90;99.90;;;;;;5032081;28;20174;-80
2022/08/03 07:25:09;;;;;;;6.45;2.80;;;28.70;99.90;;;;;;5031595;28;20647;-79
2022/08/03 07:27:35;;;;;;;8.95;3.25;;;28.60;99.90;;;;;;5034006;28;20185;-80
2022/08/03 07:30:04;;;;;;;10.23;3.17;;;29.10;99.90;;;;;;5035448;28;20170;-82
2022/08/03 07:32:30;;;;;;;9.52;3.05;;;29.30;99.90;;;;;;5032619;28;20275;-82
2022/08/03 07:34:56;;;;;;;11.40;2.97;;;29.70;99.90;;;;;;5033243;28;20666;-82
2022/08/03 07:37:21;;;;;;;5.43;3.28;;;28.90;99.90;;;;;;5034168;28;20197;-82
2022/08/03 07:39:47;;;;;;;5.05;3.00;;;29.20;99.90;;;;;;5033805;28;20182;-82
2022/08/03 07:42:13;;;;;;;5.60;2.80;;;29.10;99.90;;;;;;5032937;28;20201;-82
2022/08/03 07:44:39;;;;;;;6.97;3.28;;;29.70;99.40;;;;;;5033002;28;20284;-81
2022/08/03 07:47:05;;;;;;;7.32;2.88;;;29.80;99.50;;;;;;5033217;28;20180;-82
2022/08/03 07:49:30;;;;;;;10.00;2.70;;;29.50;99.90;;;;;;5033000;28;20194;-82
2022/08/03 07:54:40;;;;;;;7.60;2.63;;;29.60;99.70;;;;;;5034203;28;20216;-82
2022/08/03 07:57:06;;;;;;;7.95;2.30;;;30.30;99.10;;;;;;5032808;28;20622;-82
2022/08/03 07:59:34;;;;;;;6.07;2.30;;;29.90;98.90;;;;;;5033504;28;20170;-81
2022/08/03 08:01:59;;;;;;;7.03;2.45;;;30.40;99.20;;;;;;5033866;28;20264;-81
2022/08/03 08:04:25;;;;;;;7.43;2.30;;;30.70;98.30;;;;;;5033659;28;20236;-81
2022/08/03 08:06:51;;;;;;;4.97;2.22;;;30.80;98.20;;;;;;5033970;28;20177;-81
2022/08/03 08:09:16;;;;;;;7.35;2.00;;;30.10;98.10;;;;;;5034212;28;20174;-81
2022/08/03 08:11:42;;;;;;;6.18;2.33;;;30.40;98.10;;;;;;5037644;28;20205;-81
2022/08/03 08:14:08;;;;;;;6.07;1.92;;;30.40;97.90;;;;;;5038984;28;20200;-81
2022/08/03 08:16:34;;;;;;;7.07;2.38;;;30.50;98.40;;;;;;5037385;28;20162;-81
2022/08/03 08:19:00;;;;;;;3.10;2.42;;;30.50;98.00;;;;;;5053633;22;20229;-79
2022/08/03 08:21:26;;;;;;;7.15;2.20;;;30.70;97.80;;;;;;5042414;28;20174;-79
2022/08/03 08:23:52;;;;;;;5.13;2.20;;;30.70;97.30;;;;;;5040497;28;20664;-79
2022/08/03 08:26:17;;;;;;;6.10;2.15;;;31.00;97.10;;;;;;5042000;28;20185;-78
2022/08/03 08:28:43;;;;;;;6.82;2.53;;;30.70;97.60;;;;;;5042055;28;20170;-79
2022/08/03 08:31:08;;;;;;;4.20;2.13;;;30.70;96.50;;;;;;5042532;28;20200;-80
2022/08/03 08:33:34;;;;;;;3.80;1.92;;;30.60;97.40;;;;;;5042418;28;20174;-80
2022/08/03 08:36:00;;;;;;;3.83;2.30;;;30.80;97.20;;;;;;5060563;22;20230;-78
2022/08/03 08:38:26;;;;;;;5.35;2.20;;;30.90;97.10;;;;;;5035401;28;20177;-80
2022/08/03 08:40:55;;;;;;;5.82;2.75;;;31.00;96.20;;;;;;5035072;28;20703;-77
2022/08/03 08:43:20;;;;;;;6.80;2.30;;;30.60;96.30;;;;;;5034813;28;20192;-77
2022/08/03 08:45:50;;;;;;;5.90;2.50;;;31.20;96.20;;;;;;5035352;28;20194;-77
2022/08/03 08:48:21;;;;;;;7.57;2.45;;;31.10;96.70;;;;;;5035543;28;20166;-77
2022/08/03 08:50:51;;;;;;;6.40;2.10;;;30.80;96.10;;;;;;5035221;28;20197;-78
2022/08/03 08:53:18;;;;;;;4.10;2.00;;;31.40;95.00;;;;;;5035008;28;20630;-77
2022/08/03 08:55:46;;;;;;;7.43;2.20;;;31.30;95.40;;;;;;5035683;28;20194;-77
2022/08/03 08:58:13;;;;;;;5.68;2.30;;;31.50;95.00;;;;;;5035092;28;20257;-79
2022/08/03 09:00:38;;;;;;;6.47;2.20;;;31.00;96.20;;;;;;5035036;28;20170;-77
2022/08/03 09:03:04;;;;;;;5.03;2.00;;;31.50;94.40;;;;;;5034901;28;20691;-77
2022/08/03 09:05:31;;;;;;;7.82;2.83;;;31.20;95.30;;;;;;5036793;28;20220;-81
2022/08/03 09:07:57;;;;;;;4.75;2.45;;;31.40;95.60;;;;;;5035645;28;20185;-80
2022/08/03 09:10:23;;;;;;;3.00;2.20;;;30.80;94.60;;;;;;5035832;28;20189;-77
2022/08/03 09:12:51;;;;;;;5.32;2.20;;;30.90;95.00;;;;;;5036111;28;20170;-79
2022/08/03 09:15:30;;;;;;;8.88;2.55;;;31.20;94.80;;;;;;5036724;28;20186;-79
2022/08/03 09:17:57;;;;;;;4.82;2.40;;;30.70;95.20;;;;;;5042103;28;20222;-78
2022/08/03 09:20:28;;;;;;;4.57;2.40;;;31.10;94.70;;;;;;5040373;28;20198;-79
2022/08/03 09:22:59;;;;;;;4.85;2.20;;;30.50;95.00;;;;;;5042513;28;20174;-79
2022/08/03 09:25:29;;;;;;;5.00;2.35;;;30.80;95.10;;;;;;5040677;28;20242;-78
2022/08/03 09:28:04;;;;;;;8.88;2.45;;;30.60;94.50;;;;;;5036025;28;20224;-80
2022/08/03 09:30:30;;;;;;;3.88;2.30;;;31.30;94.20;;;;;;5035442;28;20201;-80
2022/08/03 09:33:03;;;;;;;11.23;2.60;;;31.10;94.30;;;;;;5034900;28;20579;-78
2022/08/03 09:35:29;;;;;;;5.70;2.15;;;31.30;94.10;;;;;;5034668;28;20210;-81
2022/08/03 09:38:09;;;;;;;4.63;2.28;;;31.30;94.50;;;;;;5035068;28;20166;-78
2022/08/03 09:40:35;;;;;;;8.70;2.45;;;31.70;94.40;;;;;;5034524;28;20269;-78
2022/08/03 09:43:01;;;;;;;7.18;2.92;;;31.90;93.50;;;;;;5034300;28;20174;-77
2022/08/03 09:45:28;;;;;;;6.35;2.28;;;31.50;94.20;;;;;;5034859;28;20284;-78
2022/08/03 09:47:55;;;;;;;6.22;2.22;;;31.50;93.80;;;;;;5035218;28;20181;-79
2022/08/03 09:50:21;;;;;;;3.40;2.20;;;31.20;93.60;;;;;;5034783;28;20182;-80
2022/08/03 09:52:50;;;;;;;6.53;2.30;;;30.80;93.80;;;;;;5034696;28;20193;-78
2022/08/03 09:55:16;;;;;;;5.38;2.10;;;30.80;94.10;;;;;;5035103;28;20681;-77
2022/08/03 09:57:45;;;;;;;8.23;2.22;;;30.80;93.50;;;;;;5034882;28;20251;-78
2022/08/03 10:00:13;;;;;;;5.38;2.30;;;30.70;93.30;;;;;;5034679;28;20180;-78
2022/08/03 10:02:43;;;;;;;5.00;2.28;;;30.50;94.30;;;;;;5034098;28;20239;-77
2022/08/03 10:05:11;;;;;;;5.65;2.10;;;30.50;94.40;;;;;;5033554;28;20797;-78
2022/08/03 10:07:48;;;;;;;8.65;2.17;;;30.30;94.40;;;;;;5034046;28;20166;-77
2022/08/03 10:10:15;;;;;;;5.53;2.22;;;30.40;94.20;;;;;;5034018;28;20242;-77
2022/08/03 10:12:43;;;;;;;7.93;2.40;;;30.50;93.80;;;;;;5034182;28;20205;-77
2022/08/03 10:15:10;;;;;;;4.03;2.45;;;30.30;93.70;;;;;;5032503;28;20201;-76
2022/08/03 10:17:37;;;;;;;6.65;2.15;;;30.20;93.80;;;;;;5033570;28;20426;-77
2022/08/03 10:20:05;;;;;;;5.90;2.40;;;30.00;93.90;;;;;;5033944;28;20586;-77
2022/08/03 10:22:35;;;;;;;6.90;2.38;;;30.00;94.30;;;;;;5033086;28;20178;-77
2022/08/03 10:25:15;;;;;;;3.10;2.15;;;29.90;94.70;;;;;;5032600;28;20201;-76
2022/08/03 10:27:46;;;;;;;3.35;1.92;;;29.90;94.00;;;;;;5032561;28;20190;-77
2022/08/03 10:30:12;;;;;;;7.97;2.30;;;30.40;94.50;;;;;;5032391;28;20646;-77
2022/08/03 10:33:00;;;;;;;5.82;2.38;;;30.70;93.80;;;;;;5033203;28;20170;-75
2022/08/03 10:35:28;;;;;;;15.55;2.60;;;31.60;93.10;;;;;;5031522;28;20304;-77
2022/08/03 10:37:53;;;;;;;3.47;2.10;;;31.60;93.30;;;;;;5031638;28;20200;-75
2022/08/03 10:40:21;;;;;;;4.97;2.28;;;31.40;93.10;;;;;;5032916;28;20177;-75
2022/08/03 10:42:50;;;;;;;7.70;2.30;;;31.60;93.00;;;;;;5033430;28;20173;-77
2022/08/03 10:45:22;;;;;;;4.63;2.13;;;32.20;93.10;;;;;;5032219;28;20197;-77
2022/08/03 10:47:50;;;;;;;4.07;2.35;;;31.50;93.70;;;;;;5032187;28;20170;-77
2022/08/03 10:50:16;;;;;;;4.35;2.30;;;31.10;93.30;;;;;;5031877;28;20208;-76
2022/08/03 10:53:05;;;;;;;8.15;2.08;;;31.40;94.30;;;;;;5031498;28;20174;-76
2022/08/03 10:58:37;;;;;;;5.32;2.05;;;31.90;92.30;;;;;;5032285;28;20661;-76
2022/08/03 11:01:04;;;;;;;3.80;2.00;;;31.70;92.40;;;;;;5028873;28;20850;-75
2022/08/03 11:03:31;;;;;;;6.32;2.33;;;31.20;92.30;;;;;;5030528;28;20634;-76
2022/08/03 11:06:24;;;;;;;5.25;2.40;;;31.30;92.30;;;;;;5030263;28;20501;-78
2022/08/03 11:09:09;;;;;;;5.93;2.22;;;31.70;91.90;;;;;;5026440;28;20269;-75
2022/08/03 11:11:36;;;;;;;6.82;2.08;;;32.40;92.00;;;;;;5030056;28;20209;-77
2022/08/03 11:14:22;;;;;;;7.43;2.38;;;32.10;91.90;;;;;;5029148;28;20174;-76
2022/08/03 11:16:51;;;;;;;5.40;2.60;;;32.20;92.20;;;;;;5029886;28;20171;-76
2022/08/03 11:19:26;;;;;;;6.25;2.55;;;32.60;91.00;;;;;;5030242;28;20170;-77
2022/08/03 11:21:53;;;;;;;5.15;2.35;;;32.30;92.40;;;;;;5030113;28;20586;-76
2022/08/03 11:24:40;;;;;;;4.60;2.38;;;32.50;91.90;;;;;;5030160;28;20194;-76
2022/08/03 11:27:14;;;;;;;6.57;2.60;;;32.50;91.70;;;;;;5030048;28;20686;-78
2022/08/03 11:30:06;;;;;;;5.45;2.40;;;32.40;91.10;;;;;;5029592;28;20177;-75
2022/08/03 11:32:42;;;;;;;6.20;2.70;;;32.70;92.30;;;;;;5029980;28;20760;-75
2022/08/03 11:35:13;;;;;;;9.00;2.30;;;33.20;90.30;;;;;;5030324;28;20209;-75
2022/08/03 11:37:58;;;;;;;7.97;2.35;;;33.10;90.10;;;;;;5029565;28;20480;-77
2022/08/03 11:40:34;;;;;;;7.20;2.70;;;33.10;90.50;;;;;;5029435;28;20705;-76
2022/08/03 11:43:01;;;;;;;5.45;2.53;;;33.00;89.30;;;;;;5029767;28;20627;-77
2022/08/03 11:45:27;;;;;;;7.43;2.45;;;32.40;90.90;;;;;;5029499;28;20197;-75
2022/08/03 11:47:54;;;;;;;7.15;2.75;;;32.40;91.20;;;;;;5029277;28;20503;-77
2022/08/03 11:50:21;;;;;;;5.10;2.35;;;32.00;91.10;;;;;;5029490;28;20205;-77
2022/08/03 11:52:48;;;;;;;10.80;2.47;;;31.70;91.10;;;;;;5029208;28;20212;-77
2022/08/03 11:55:17;;;;;;;6.95;2.53;;;32.10;91.70;;;;;;5029863;28;20189;-77
2022/08/03 11:57:45;;;;;;;9.43;2.70;;;32.00;91.00;;;;;;5029138;28;20174;-76
2022/08/03 12:00:29;;;;;;;6.95;3.22;;;32.00;90.60;;;;;;5029648;28;20180;-79
2022/08/03 12:03:12;;;;;;;8.18;2.80;;;31.90;90.50;;;;;;5029434;28;20193;-78
2022/08/03 12:05:40;;;;;;;12.85;2.53;;;32.50;88.80;;;;;;5029574;28;20204;-78
2022/08/03 12:08:07;;;;;;;9.90;2.60;;;32.70;88.40;;;;;;5029789;28;20743;-76
2022/08/03 12:10:34;;;;;;;12.52;2.65;;;32.70;88.90;;;;;;5029343;28;20213;-77
2022/08/03 12:13:01;;;;;;;7.55;2.53;;;32.90;90.20;;;;;;5029139;28;20174;-78
2022/08/03 12:15:30;;;;;;;11.93;2.70;;;32.20;89.60;;;;;;5029675;28;20199;-76
2022/08/03 12:17:56;;;;;;;13.50;2.50;;;32.20;88.50;;;;;;5029326;28;20177;-78
2022/08/03 12:20:27;;;;;;;7.95;2.40;;;32.00;89.00;;;;;;5029576;28;20177;-78
2022/08/03 12:22:53;;;;;;;12.02;2.85;;;32.10;90.50;;;;;;5029365;28;20170;-77
2022/08/03 12:25:26;;;;;;;9.88;2.78;;;32.40;90.70;;;;;;5029525;28;20189;-77
2022/08/03 12:27:53;;;;;;;10.70;3.00;;;32.20;88.50;;;;;;5028887;28;20166;-77
2022/08/03 12:30:19;;;;;;;10.50;2.45;;;32.10;88.40;;;;;;5029185;28;20162;-79
2022/08/03 12:32:45;;;;;;;15.60;2.95;;;32.20;87.90;;;;;;5029208;28;20646;-79
2022/08/03 12:35:23;;;;;;;10.55;2.55;;;32.30;89.60;;;;;;5029732;28;20210;-77
2022/08/03 12:37:50;;;;;;;6.25;2.60;;;31.90;88.40;;;;;;5031615;28;20631;-77
2022/08/03 12:40:25;;;;;;;9.30;2.38;;;31.90;90.60;;;;;;5030872;28;20178;-80
2022/08/03 12:42:51;;;;;;;9.25;2.78;;;32.30;90.60;;;;;;5029674;28;20177;-77
2022/08/03 12:45:24;;;;;;;7.55;2.70;;;32.30;90.10;;;;;;5030466;28;20279;-77
2022/08/03 12:48:00;;;;;;;9.90;2.40;;;32.30;90.00;;;;;;5030372;28;20180;-75
2022/08/03 12:50:30;;;;;;;6.18;2.40;;;32.20;89.90;;;;;;5029945;28;20170;-77
2022/08/03 12:52:57;;;;;;;13.45;2.60;;;32.20;90.60;;;;;;5029777;28;20175;-79
2022/08/03 12:55:32;;;;;;;9.50;2.80;;;32.10;89.50;;;;;;5030373;28;20248;-77
2022/08/03 12:58:02;;;;;;;12.10;2.75;;;32.10;89.50;;;;;;5032146;28;20671;-78
2022/08/03 13:00:29;;;;;;;5.82;2.17;;;32.10;89.50;;;;;;5034119;28;20171;-78
2022/08/03 13:03:06;;;;;;;6.93;2.88;;;32.00;90.10;;;;;;5032975;28;20178;-78